createdAt,value
2019-04-14T00:00:53.279Z,4.07
2019-04-14T00:03:36.849Z,2.27
2019-04-14T00:06:11.863Z,2.37
2019-04-14T00:08:47.982Z,2.70
2019-04-14T00:11:19.077Z,4.90
2019-04-14T00:13:50.210Z,8.90
2019-04-14T00:16:20.718Z,2.27
2019-04-14T00:18:51.284Z,2.90
2019-04-14T00:21:23.641Z,2.87
2019-04-14T00:23:54.442Z,4.10
2019-04-14T00:26:27.429Z,5.80
2019-04-14T00:29:00.944Z,4.03
2019-04-14T00:31:32.475Z,2.77
2019-04-14T00:34:07.286Z,2.90
2019-04-14T00:36:50.865Z,4.33
2019-04-14T00:39:31.543Z,2.97
2019-04-14T00:42:21.230Z,3.87
2019-04-14T00:44:58.286Z,3.07
2019-04-14T00:47:39.222Z,2.60
2019-04-14T00:50:08.285Z,7.37
2019-04-14T00:52:39.430Z,6.37
2019-04-14T00:55:09.869Z,3.93
2019-04-14T00:57:40.294Z,3.80
2019-04-14T01:00:15.769Z,2.43
2019-04-14T01:02:45.095Z,4.73
2019-04-14T01:05:17.438Z,2.30
2019-04-14T01:07:50.088Z,5.07
2019-04-14T01:10:23.589Z,3.20
2019-04-14T01:12:54.346Z,2.53
2019-04-14T01:15:26.717Z,2.60
2019-04-14T01:17:57.206Z,3.80
2019-04-14T01:20:30.185Z,2.63
2019-04-14T01:23:02.092Z,4.90
2019-04-14T01:25:32.507Z,4.80
2019-04-14T01:28:02.858Z,3.90
2019-04-14T01:30:33.598Z,2.63
2019-04-14T01:33:05.469Z,4.50
2019-04-14T01:35:36.364Z,3.00
2019-04-14T01:38:08.035Z,3.80
2019-04-14T01:40:38.844Z,3.40
2019-04-14T01:43:10.295Z,4.07
2019-04-14T01:45:40.672Z,8.43
2019-04-14T01:48:14.837Z,6.00
2019-04-14T01:51:07.601Z,4.07
2019-04-14T01:53:57.484Z,6.33
2019-04-14T01:56:47.159Z,3.77
2019-04-14T01:59:20.481Z,2.47
2019-04-14T02:01:54.960Z,5.03
2019-04-14T02:04:26.790Z,4.10
2019-04-14T02:06:57.446Z,3.73
2019-04-14T02:09:27.888Z,3.97
2019-04-14T02:12:03.754Z,3.23
2019-04-14T02:14:34.654Z,4.90
2019-04-14T02:17:06.445Z,4.70
2019-04-14T02:19:39.267Z,3.10
2019-04-14T02:22:09.845Z,4.13
2019-04-14T02:24:41.627Z,3.47
2019-04-14T02:27:12.272Z,2.63
2019-04-14T02:29:42.967Z,2.97
2019-04-14T02:32:42.499Z,2.50
2019-04-14T02:35:13.247Z,2.33
2019-04-14T02:37:49.121Z,4.43
2019-04-14T02:40:18.158Z,2.93
2019-04-14T02:42:46.499Z,3.90
2019-04-14T02:45:28.252Z,3.80
2019-04-14T02:48:03.321Z,3.30
2019-04-14T02:50:26.308Z,3.13
2019-04-14T02:55:37.300Z,2.83
2019-04-14T02:58:16.209Z,2.87
2019-04-14T03:00:42.105Z,3.80
2019-04-14T03:03:16.875Z,2.60
2019-04-14T03:08:25.655Z,3.57
2019-04-14T03:10:55.851Z,4.53
2019-04-14T03:15:55.854Z,2.90
2019-04-14T03:18:52.694Z,2.83
2019-04-14T03:24:42.223Z,7.83
2019-04-14T03:27:48.243Z,3.80
2019-04-14T03:30:36.521Z,3.03
2019-04-14T03:37:54.076Z,4.30
2019-04-14T03:40:25.897Z,5.43
2019-04-14T03:43:04.066Z,2.83
2019-04-14T03:45:36.411Z,4.50
2019-04-14T03:48:37.583Z,3.67
2019-04-14T03:50:36.826Z,3.80
2019-04-14T03:55:55.339Z,3.00
2019-04-14T03:58:22.667Z,2.57
2019-04-14T04:00:53.347Z,4.03
2019-04-14T04:03:24.062Z,3.43
2019-04-14T04:05:54.416Z,4.63
2019-04-14T04:08:26.945Z,3.00
2019-04-14T04:10:59.794Z,3.30
2019-04-14T04:13:30.356Z,3.07
2019-04-14T04:16:29.154Z,5.37
2019-04-14T04:19:10.501Z,3.27
2019-04-14T04:22:02.165Z,3.23
2019-04-14T04:24:38.889Z,4.67
2019-04-14T04:27:24.393Z,3.77
2019-04-14T04:30:12.269Z,3.27
2019-04-14T04:33:08.709Z,2.70
2019-04-14T04:36:05.623Z,3.30
2019-04-14T04:38:59.700Z,3.10
2019-04-14T04:41:29.828Z,2.73
2019-04-14T04:44:00.706Z,2.53
2019-04-14T04:46:31.524Z,4.87
2019-04-14T04:49:09.601Z,5.33
2019-04-14T04:51:34.087Z,3.03
2019-04-14T04:54:04.441Z,3.00
2019-04-14T04:56:34.768Z,4.23
2019-04-14T04:59:05.467Z,3.73
2019-04-14T05:01:38.597Z,3.10
2019-04-14T05:04:09.103Z,3.67
2019-04-14T05:07:16.546Z,4.50
2019-04-14T05:10:21.734Z,3.53
2019-04-14T05:13:14.286Z,6.40
2019-04-14T05:15:48.811Z,3.07
2019-04-14T05:18:24.721Z,4.80
2019-04-14T05:20:55.460Z,3.37
2019-04-14T05:23:25.989Z,3.80
2019-04-14T05:25:56.693Z,2.50
2019-04-14T05:28:27.101Z,2.60
2019-04-14T05:30:57.368Z,3.53
2019-04-14T05:33:29.412Z,3.13
2019-04-14T05:35:59.929Z,3.73
2019-04-14T05:38:32.167Z,2.73
2019-04-14T05:41:04.726Z,3.83
2019-04-14T05:43:43.478Z,4.30
2019-04-14T05:46:07.778Z,3.00
2019-04-14T05:48:38.295Z,3.17
2019-04-14T05:51:08.857Z,3.60
2019-04-14T05:53:39.545Z,2.60
2019-04-14T05:56:14.364Z,5.50
2019-04-14T05:58:45.177Z,3.27
2019-04-14T06:01:16.061Z,3.03
2019-04-14T06:03:49.586Z,2.40
2019-04-14T06:06:19.957Z,3.47
2019-04-14T06:08:51.369Z,3.27
2019-04-14T06:11:23.949Z,5.47
2019-04-14T06:13:54.308Z,2.50
2019-04-14T06:16:24.632Z,3.30
2019-04-14T06:18:55.143Z,3.40
2019-04-14T06:21:29.007Z,2.87
2019-04-14T06:23:59.432Z,2.80
2019-04-14T06:26:30.102Z,3.20
2019-04-14T06:29:00.425Z,3.30
2019-04-14T06:31:45.409Z,3.67
2019-04-14T06:34:27.951Z,3.23
2019-04-14T06:37:20.893Z,5.70
2019-04-14T06:39:52.509Z,3.27
2019-04-14T06:42:22.939Z,4.97
2019-04-14T06:44:53.241Z,3.20
2019-04-14T06:47:24.821Z,7.37
2019-04-14T06:49:57.703Z,2.60
2019-04-14T06:52:27.666Z,3.33
2019-04-14T06:54:58.033Z,6.47
2019-04-14T06:57:28.323Z,2.37
2019-04-14T07:00:00.321Z,2.33
2019-04-14T07:02:30.791Z,2.43
2019-04-14T07:05:02.230Z,3.83
2019-04-14T07:07:35.394Z,4.57
2019-04-14T07:10:07.114Z,4.30
2019-04-14T07:12:37.470Z,2.47
2019-04-14T07:15:10.657Z,3.40
2019-04-14T07:17:40.984Z,4.20
2019-04-14T07:20:11.661Z,4.13
2019-04-14T07:22:42.094Z,3.70
2019-04-14T07:25:12.411Z,2.80
2019-04-14T07:27:42.719Z,3.57
2019-04-14T07:30:47.376Z,4.63
2019-04-14T07:33:43.171Z,2.20
2019-04-14T07:36:41.124Z,4.57
2019-04-14T07:39:29.779Z,2.70
2019-04-14T07:42:10.340Z,2.40
2019-04-14T07:44:58.940Z,2.50
2019-04-14T07:47:48.282Z,3.52
2019-04-14T07:50:30.725Z,2.40
2019-04-14T07:53:19.357Z,2.90
2019-04-14T07:56:01.419Z,3.45
2019-04-14T07:58:55.388Z,3.33
2019-04-14T08:01:35.532Z,2.92
2019-04-14T08:04:14.595Z,2.57
2019-04-14T08:06:52.407Z,2.72
2019-04-14T08:09:22.860Z,2.00
2019-04-14T08:11:56.649Z,4.92
2019-04-14T08:14:27.060Z,5.62
2019-04-14T08:16:59.131Z,2.37
2019-04-14T08:19:29.524Z,2.17
2019-04-14T08:22:05.538Z,2.72
2019-04-14T08:24:37.332Z,5.20
2019-04-14T08:27:07.825Z,4.35
2019-04-14T08:29:39.353Z,3.60
2019-04-14T08:32:11.712Z,3.72
2019-04-14T08:34:42.033Z,3.55
2019-04-14T08:37:12.558Z,7.80
2019-04-14T08:39:44.140Z,4.85
2019-04-14T08:42:33.968Z,2.65
2019-04-14T08:45:13.103Z,2.83
2019-04-14T08:47:56.568Z,2.33
2019-04-14T08:50:49.227Z,3.10
2019-04-14T08:53:34.148Z,3.80
2019-04-14T08:56:17.142Z,5.62
2019-04-14T08:58:56.665Z,3.10
2019-04-14T09:01:41.256Z,6.03
2019-04-14T09:04:28.949Z,3.00
2019-04-14T09:07:19.012Z,3.15
2019-04-14T09:09:58.101Z,2.83
2019-04-14T09:12:32.109Z,4.75
2019-04-14T09:15:05.314Z,2.77
2019-04-14T09:17:37.175Z,3.77
2019-04-14T09:20:08.445Z,3.45
2019-04-14T09:22:38.841Z,2.98
2019-04-14T09:25:09.164Z,3.30
2019-04-14T09:27:39.458Z,2.42
2019-04-14T09:30:10.386Z,4.20
2019-04-14T09:32:40.724Z,3.37
2019-04-14T09:35:11.030Z,4.58
2019-04-14T09:37:41.844Z,3.50
2019-04-14T09:40:12.154Z,2.87
2019-04-14T09:42:46.546Z,4.15
2019-04-14T09:45:16.924Z,2.40
2019-04-14T09:47:48.072Z,3.15
2019-04-14T09:50:19.690Z,2.90
2019-04-14T09:52:50.385Z,5.03
2019-04-14T09:55:23.400Z,4.47
2019-04-14T09:57:52.852Z,4.78
2019-04-14T10:00:23.437Z,5.40
2019-04-14T10:02:59.697Z,3.12
2019-04-14T10:05:30.059Z,2.42
2019-04-14T10:08:00.371Z,3.60
2019-04-14T10:10:30.700Z,2.57
2019-04-14T10:13:02.637Z,6.60
2019-04-14T10:15:33.574Z,2.77
2019-04-14T10:18:04.165Z,2.87
2019-04-14T10:20:34.678Z,4.30
2019-04-14T10:23:05.265Z,4.57
2019-04-14T10:25:36.338Z,2.50
2019-04-14T10:28:06.791Z,3.53
2019-04-14T10:30:37.082Z,3.10
2019-04-14T10:33:08.856Z,21.33
2019-04-14T10:35:41.231Z,5.75
2019-04-14T10:38:11.651Z,2.60
2019-04-14T10:40:42.332Z,3.47
2019-04-14T10:43:12.701Z,2.37
2019-04-14T10:45:42.999Z,2.93
2019-04-14T10:48:13.347Z,2.67
2019-04-14T10:50:43.606Z,2.58
2019-04-14T10:53:14.241Z,3.25
2019-04-14T10:55:44.587Z,7.50
2019-04-14T10:58:16.943Z,4.42
2019-04-14T11:00:47.950Z,3.20
2019-04-14T11:03:18.296Z,4.25
2019-04-14T11:05:57.891Z,3.02
2019-04-14T11:08:28.754Z,5.00
2019-04-14T11:10:59.072Z,3.15
2019-04-14T11:13:29.375Z,3.98
2019-04-14T11:15:59.822Z,6.00
2019-04-14T11:18:30.102Z,2.45
2019-04-14T11:21:02.520Z,2.80
2019-04-14T11:23:33.146Z,2.58
2019-04-14T11:26:04.679Z,2.92
2019-04-14T11:28:34.993Z,17.05
2019-04-14T11:31:06.123Z,5.13
2019-04-14T11:33:56.562Z,4.90
2019-04-14T11:36:46.596Z,7.28
2019-04-14T11:39:17.573Z,4.47
2019-04-14T11:41:49.970Z,4.08
2019-04-14T11:44:20.438Z,2.80
2019-04-14T11:46:54.061Z,3.12
2019-04-14T11:49:24.388Z,4.30
2019-04-14T11:51:55.843Z,2.52
2019-04-14T11:54:26.405Z,11.35
2019-04-14T11:57:00.446Z,6.80
2019-04-14T11:59:42.807Z,2.45
2019-04-14T12:02:28.626Z,2.45
2019-04-14T12:05:05.637Z,3.45
2019-04-14T12:07:58.200Z,5.33
2019-04-14T12:10:30.864Z,2.17
2019-04-14T12:13:01.265Z,3.65
2019-04-14T12:15:34.333Z,2.90
2019-04-14T12:18:04.621Z,3.72
2019-04-14T12:20:38.969Z,3.58
2019-04-14T12:23:16.035Z,3.25
2019-04-14T12:25:46.306Z,16.57
2019-04-14T12:28:19.407Z,8.60
2019-04-14T12:30:53.242Z,5.15
2019-04-14T12:33:24.567Z,5.65
2019-04-14T12:35:54.890Z,3.12
2019-04-14T12:38:25.355Z,2.87
2019-04-14T12:40:57.807Z,2.65
2019-04-14T12:43:36.956Z,2.85
2019-04-14T12:46:26.279Z,3.47
2019-04-14T12:49:13.782Z,3.83
2019-04-14T12:52:03.308Z,5.87
2019-04-14T12:54:35.629Z,2.60
2019-04-14T12:57:06.011Z,3.27
2019-04-14T12:59:37.034Z,2.95
2019-04-14T13:02:29.633Z,4.83
2019-04-14T13:05:00.249Z,2.70
2019-04-14T13:07:31.258Z,4.45
2019-04-14T13:10:03.678Z,5.12
2019-04-14T13:12:34.041Z,2.80
2019-04-14T13:15:04.787Z,4.10
2019-04-14T13:17:36.199Z,2.98
2019-04-14T13:20:08.515Z,4.00
2019-04-14T13:22:38.943Z,3.60
2019-04-14T13:25:12.281Z,3.85
2019-04-14T13:27:43.542Z,3.15
2019-04-14T13:30:19.718Z,4.45
2019-04-14T13:32:51.623Z,3.83
2019-04-14T13:35:22.312Z,4.45
2019-04-14T13:37:53.946Z,3.30
2019-04-14T13:40:24.358Z,3.00
2019-04-14T13:42:55.590Z,2.52
2019-04-14T13:45:26.065Z,4.35
2019-04-14T13:48:00.382Z,2.77
2019-04-14T13:50:31.374Z,3.67
2019-04-14T13:53:06.616Z,2.72
2019-04-14T13:55:40.001Z,4.55
2019-04-14T13:58:13.452Z,3.60
2019-04-14T14:00:46.070Z,2.47
2019-04-14T14:03:16.545Z,4.12
2019-04-14T14:05:47.095Z,9.20
2019-04-14T14:08:17.408Z,4.35
2019-04-14T14:10:48.260Z,2.20
2019-04-14T14:13:29.457Z,6.15
2019-04-14T14:16:23.532Z,5.67
2019-04-14T14:19:01.044Z,8.23
2019-04-14T14:21:50.294Z,4.28
2019-04-14T14:24:38.171Z,2.60
2019-04-14T14:27:09.716Z,2.77
2019-04-14T14:29:40.687Z,4.92
2019-04-14T14:32:22.921Z,4.67
2019-04-14T14:34:54.067Z,9.63
2019-04-14T14:37:24.465Z,20.92
2019-04-14T14:39:55.230Z,3.70
2019-04-14T14:42:27.747Z,12.03
2019-04-14T14:45:26.721Z,8.90
2019-04-14T14:48:18.183Z,4.95
2019-04-14T14:51:20.298Z,5.30
2019-04-14T14:53:51.021Z,3.45
2019-04-14T14:56:22.018Z,3.30
2019-04-14T14:58:52.871Z,3.92
2019-04-14T15:01:24.726Z,2.83
2019-04-14T15:03:55.129Z,4.20
2019-04-14T15:06:26.967Z,3.75
2019-04-14T15:08:59.111Z,2.30
2019-04-14T15:11:29.826Z,8.28
2019-04-14T15:14:00.258Z,5.25
2019-04-14T15:16:30.666Z,4.47
2019-04-14T15:19:01.044Z,2.80
2019-04-14T15:21:32.721Z,8.18
2019-04-14T15:24:03.065Z,3.87
2019-04-14T15:26:34.977Z,3.00
2019-04-14T15:29:12.013Z,5.53
2019-04-14T15:31:42.380Z,7.45
2019-04-14T15:34:12.769Z,3.37
2019-04-14T15:36:43.209Z,7.25
2019-04-14T15:39:13.549Z,5.17
2019-04-14T15:41:44.658Z,3.22
2019-04-14T15:44:20.353Z,3.30
2019-04-14T15:46:58.521Z,4.42
2019-04-14T15:49:30.030Z,8.40
2019-04-14T15:52:00.369Z,3.50
2019-04-14T15:54:30.799Z,3.85
2019-04-14T15:57:22.092Z,4.83
2019-04-14T16:00:15.594Z,3.42
2019-04-14T16:03:11.524Z,4.45
2019-04-14T16:05:49.779Z,3.20
2019-04-14T16:08:29.171Z,6.40
2019-04-14T16:11:05.010Z,6.05
2019-04-14T16:13:54.624Z,7.47
2019-04-14T16:16:43.892Z,2.40
2019-04-14T16:19:33.207Z,5.25
2019-04-14T16:22:04.617Z,3.87
2019-04-14T16:24:35.319Z,13.40
2019-04-14T16:27:25.779Z,3.22
2019-04-14T16:30:15.190Z,11.30
2019-04-14T16:33:07.067Z,4.33
2019-04-14T16:35:38.181Z,6.20
2019-04-14T16:38:08.484Z,5.13
2019-04-14T16:40:40.992Z,3.90
2019-04-14T16:43:12.893Z,4.83
2019-04-14T16:45:43.300Z,5.00
2019-04-14T16:48:15.655Z,2.97
2019-04-14T16:50:47.707Z,3.57
2019-04-14T16:53:43.119Z,4.50
2019-04-14T16:56:32.467Z,4.63
2019-04-14T16:59:06.406Z,4.40
2019-04-14T17:01:43.008Z,5.13
2019-04-14T17:04:13.405Z,24.13
2019-04-14T17:06:43.794Z,3.07
2019-04-14T17:09:14.652Z,2.80
2019-04-14T17:11:45.519Z,15.67
2019-04-14T17:14:25.533Z,5.93
2019-04-14T17:17:17.583Z,4.83
2019-04-14T17:19:57.312Z,5.23
2019-04-14T17:22:42.916Z,4.30
2019-04-14T17:25:42.777Z,5.40
2019-04-14T17:28:26.794Z,3.30
2019-04-14T17:31:21.930Z,3.20
2019-04-14T17:34:10.798Z,4.93
2019-04-14T17:36:50.954Z,4.13
2019-04-14T17:39:37.766Z,3.80
2019-04-14T17:42:36.255Z,2.57
2019-04-14T17:45:29.126Z,2.73
2019-04-14T17:48:27.454Z,7.43
2019-04-14T17:51:21.989Z,20.33
2019-04-14T17:54:04.588Z,34.53
2019-04-14T17:56:49.032Z,18.30
2019-04-14T17:59:38.694Z,14.93
2019-04-14T18:02:28.810Z,10.10
2019-04-14T18:05:06.307Z,9.10
2019-04-14T18:07:55.132Z,10.30
2019-04-14T18:10:40.991Z,26.70
2019-04-14T18:13:26.313Z,6.13
2019-04-14T18:16:10.969Z,10.37
2019-04-14T18:18:59.878Z,6.97
2019-04-14T18:21:30.611Z,11.77
2019-04-14T18:24:10.470Z,11.53
2019-04-14T18:26:40.838Z,7.07
2019-04-14T18:29:28.930Z,12.87
2019-04-14T18:32:14.116Z,9.90
2019-04-14T18:35:06.876Z,10.77
2019-04-14T18:37:56.294Z,9.10
2019-04-14T18:40:47.634Z,8.43
2019-04-14T18:43:37.532Z,9.10
2019-04-14T18:46:29.677Z,10.60
2019-04-14T18:49:19.695Z,15.37
2019-04-14T18:52:13.488Z,9.10
2019-04-14T18:55:00.822Z,8.40
2019-04-14T18:57:43.715Z,15.03
2019-04-14T19:00:27.825Z,37.13
2019-04-14T19:02:58.433Z,16.23
2019-04-14T19:05:29.067Z,22.37
2019-04-14T19:07:59.506Z,18.37
2019-04-14T19:10:29.845Z,15.93
2019-04-14T19:13:07.923Z,14.50
2019-04-14T19:16:07.447Z,17.97
2019-04-14T19:18:51.867Z,25.00
2019-04-14T19:21:27.263Z,14.47
2019-04-14T19:23:57.608Z,18.70
2019-04-14T19:26:28.298Z,14.80
2019-04-14T19:29:00.837Z,27.27
2019-04-14T19:31:32.587Z,19.53
2019-04-14T19:34:04.938Z,29.47
2019-04-14T19:36:36.513Z,16.00
2019-04-14T19:39:10.688Z,14.80
2019-04-14T19:41:41.015Z,15.23
2019-04-14T19:44:11.780Z,11.37
2019-04-14T19:46:42.180Z,11.27
2019-04-14T19:49:12.959Z,8.90
2019-04-14T19:51:44.724Z,15.77
2019-04-14T19:54:51.279Z,10.03
2019-04-14T19:57:21.664Z,15.57
2019-04-14T19:59:54.207Z,17.53
2019-04-14T20:02:30.263Z,13.87
2019-04-14T20:05:00.669Z,13.20
2019-04-14T20:07:33.995Z,11.07
2019-04-14T20:10:08.063Z,11.70
2019-04-14T20:12:38.752Z,17.87
2019-04-14T20:15:11.647Z,14.27
2019-04-14T20:17:57.897Z,12.47
2019-04-14T20:20:39.724Z,12.37
2019-04-14T20:23:20.266Z,13.93
2019-04-14T20:26:28.889Z,14.00
2019-04-14T20:29:08.468Z,12.97
2019-04-14T20:32:02.670Z,13.30
2019-04-14T20:34:33.186Z,16.40
2019-04-14T20:37:03.428Z,12.53
2019-04-14T20:39:34.483Z,12.07
2019-04-14T20:42:07.309Z,10.13
2019-04-14T20:44:38.701Z,20.47
2019-04-14T20:47:10.607Z,15.70
2019-04-14T20:49:40.951Z,14.00
2019-04-14T20:52:13.324Z,18.47
2019-04-14T20:54:45.233Z,13.30
2019-04-14T20:57:15.688Z,16.20
2019-04-14T20:59:46.032Z,19.73
2019-04-14T21:02:47.897Z,14.17
2019-04-14T21:05:51.482Z,14.07
2019-04-14T21:08:50.664Z,16.20
2019-04-14T21:11:30.465Z,14.77
2019-04-14T21:14:17.523Z,17.23
2019-04-14T21:17:04.628Z,15.90
2019-04-14T21:19:43.898Z,15.67
2019-04-14T21:22:39.338Z,14.97
2019-04-14T21:25:18.486Z,12.80
2019-04-14T21:28:12.474Z,14.20
2019-04-14T21:31:02.164Z,17.83
2019-04-14T21:33:48.047Z,13.00
2019-04-14T21:36:25.976Z,18.20
2019-04-14T21:39:08.005Z,17.17
2019-04-14T21:41:41.225Z,15.13
2019-04-14T21:44:12.044Z,15.07
2019-04-14T21:46:42.627Z,22.37
2019-04-14T21:49:13.059Z,31.73
2019-04-14T21:52:11.643Z,19.50
2019-04-14T21:54:44.483Z,16.27
2019-04-14T21:57:32.581Z,16.77
2019-04-14T22:00:43.451Z,16.00
2019-04-14T22:03:25.829Z,13.60
2019-04-14T22:06:05.245Z,15.80
2019-04-14T22:08:39.857Z,13.77
2019-04-14T22:11:25.068Z,16.60
2019-04-14T22:13:55.479Z,14.63
2019-04-14T22:16:27.288Z,17.07
2019-04-14T22:19:00.002Z,20.37
2019-04-14T22:21:30.304Z,14.83
2019-04-14T22:24:02.762Z,14.83
2019-04-14T22:26:33.142Z,20.13
2019-04-14T22:29:04.558Z,16.20
2019-04-14T22:31:34.919Z,14.00
2019-04-14T22:34:09.192Z,11.50
2019-04-14T22:36:39.506Z,16.30
2019-04-14T22:39:14.209Z,17.43
2019-04-14T22:41:46.310Z,14.17
2019-04-14T22:44:16.935Z,13.63
2019-04-14T22:46:47.393Z,17.53
2019-04-14T22:49:20.968Z,24.00
2019-04-14T22:51:54.002Z,16.50
2019-04-14T22:54:24.652Z,18.60
2019-04-14T22:56:54.946Z,13.87
2019-04-14T22:59:25.360Z,16.17
2019-04-14T23:02:04.047Z,13.30
2019-04-14T23:05:02.262Z,19.97
2019-04-14T23:07:51.637Z,17.80
2019-04-14T23:10:31.443Z,16.67
2019-04-14T23:13:13.184Z,13.13
2019-04-14T23:16:02.651Z,30.50
2019-04-14T23:18:43.577Z,17.17
2019-04-14T23:21:31.561Z,14.33
2019-04-14T23:24:29.972Z,18.23
2019-04-14T23:27:00.451Z,14.57
2019-04-14T23:29:31.241Z,16.17
2019-04-14T23:32:01.576Z,14.10
2019-04-14T23:34:31.923Z,14.73
2019-04-14T23:37:03.450Z,16.13
2019-04-14T23:39:36.470Z,13.87
2019-04-14T23:42:06.889Z,17.13
2019-04-14T23:44:38.191Z,12.80
2019-04-14T23:47:08.887Z,11.30
2019-04-14T23:49:40.732Z,17.07
2019-04-14T23:52:11.043Z,18.40
2019-04-14T23:54:41.354Z,15.10
2019-04-14T23:57:12.066Z,14.23
2019-04-14T23:59:42.374Z,17.53
